createdAt,value
2019-01-21T05:52:08.458Z,82.5
2019-01-21T05:52:49.028Z,82.41
2019-01-21T05:53:29.593Z,82.69
2019-01-21T05:54:10.154Z,82.22
2019-01-21T05:54:50.716Z,81.84
2019-01-21T05:55:31.254Z,81.84
2019-01-21T05:56:11.804Z,82.03
2019-01-21T05:56:52.351Z,81.84
2019-01-21T05:57:32.910Z,81.46
2019-01-21T05:58:13.475Z,82.03
2019-01-21T05:58:54.011Z,82.12
2019-01-21T05:59:34.566Z,81.84
2019-01-21T06:00:15.120Z,81.93
2019-01-21T06:00:55.954Z,82.12
2019-01-21T06:01:36.396Z,81.65
2019-01-21T06:02:16.989Z,81.65
2019-01-21T06:02:57.558Z,82.03
2019-01-21T06:03:38.108Z,81.56
2019-01-21T06:04:18.654Z,81.65
2019-01-21T06:04:59.201Z,82.22
2019-01-21T06:05:39.764Z,81.93
2019-01-21T06:06:20.324Z,82.5
2019-01-21T06:07:00.887Z,82.5
2019-01-21T06:07:41.437Z,82.03
2019-01-21T06:08:21.981Z,82.22
2019-01-21T06:09:02.543Z,82.5
2019-01-21T06:09:43.096Z,82.69
2019-01-21T06:10:23.654Z,82.03
2019-01-21T06:11:04.197Z,81.93
2019-01-21T06:11:44.749Z,82.03
2019-01-21T06:12:25.312Z,81.65
2019-01-21T06:13:05.868Z,81.84
2019-01-21T06:13:46.429Z,82.22
2019-01-21T06:14:26.981Z,81.93
2019-01-21T06:15:07.528Z,82.22
2019-01-21T06:15:48.098Z,82.41
2019-01-21T06:16:28.678Z,82.03
2019-01-21T06:17:09.232Z,82.03
2019-01-21T06:17:49.812Z,81.84
2019-01-21T06:18:30.568Z,82.12
2019-01-21T06:19:11.124Z,82.6
2019-01-21T06:19:51.663Z,82.22
2019-01-21T06:20:32.258Z,82.69
2019-01-21T06:21:12.820Z,82.88
2019-01-21T06:21:53.378Z,82.88
2019-01-21T06:22:34.024Z,82.79
2019-01-21T06:23:14.567Z,82.88
2019-01-21T06:23:55.194Z,82.98
2019-01-21T06:24:35.743Z,82.12
2019-01-21T06:25:16.336Z,82.69
2019-01-21T06:25:56.920Z,81.84
2019-01-21T06:26:37.479Z,81.93
2019-01-21T06:27:18.059Z,81.84
2019-01-21T06:27:58.635Z,81.93
2019-01-21T06:28:39.368Z,82.6
2019-01-21T06:29:19.942Z,82.12
2019-01-21T06:30:00.521Z,81.93
2019-01-21T06:30:41.292Z,82.22
2019-01-21T06:31:21.838Z,82.69
2019-01-21T06:32:02.391Z,82.69
2019-01-21T06:32:42.977Z,82.98
2019-01-21T06:33:23.540Z,82.41
2019-01-21T06:34:04.085Z,83.07
2019-01-21T06:34:44.648Z,82.79
2019-01-21T06:35:25.208Z,82.79
2019-01-21T06:36:05.753Z,82.88
2019-01-21T06:36:46.305Z,82.98
2019-01-21T06:37:26.841Z,83.07
2019-01-21T06:38:07.440Z,83.07
2019-01-21T06:38:48.006Z,82.79
2019-01-21T06:39:28.562Z,82.88
2019-01-21T06:40:09.135Z,82.5
2019-01-21T06:40:49.700Z,82.79
2019-01-21T06:41:30.231Z,82.88
2019-01-21T06:42:10.815Z,82.79
2019-01-21T06:42:51.412Z,82.98
2019-01-21T06:43:33.269Z,83.17
2019-01-21T06:44:13.958Z,82.5
2019-01-21T06:44:54.506Z,82.12
2019-01-21T06:45:35.073Z,82.12
2019-01-21T06:46:15.633Z,82.31
2019-01-21T06:46:56.273Z,82.41
2019-01-21T06:47:36.829Z,82.03
2019-01-21T06:48:17.415Z,81.84
2019-01-21T06:49:04.409Z,81.93
2019-01-21T06:49:38.621Z,81.84
2019-01-21T06:50:19.193Z,82.12
2019-01-21T06:50:59.759Z,82.69
2019-01-21T06:51:40.320Z,82.5
2019-01-21T06:52:20.890Z,82.12
2019-01-21T06:53:01.461Z,82.12
2019-01-21T06:53:42.041Z,82.69
2019-01-21T06:54:22.618Z,82.6
2019-01-21T06:55:03.225Z,82.69
2019-01-21T06:55:43.791Z,82.88
2019-01-21T06:56:24.356Z,82.69
2019-01-21T06:57:04.935Z,82.88
2019-01-21T06:57:45.524Z,82.88
2019-01-21T06:58:26.135Z,82.88
2019-01-21T06:59:06.817Z,82.79
2019-01-21T06:59:47.384Z,83.07
2019-01-21T07:00:27.966Z,83.36
2019-01-21T07:01:08.586Z,83.45
2019-01-21T07:01:49.169Z,83.54
2019-01-21T07:02:29.790Z,83.26
2019-01-21T07:03:10.358Z,83.07
2019-01-21T07:03:50.927Z,82.88
2019-01-21T07:04:31.511Z,82.79
2019-01-21T07:05:12.102Z,82.69
2019-01-21T07:05:52.657Z,82.03
2019-01-21T07:06:33.390Z,82.03
2019-01-21T07:07:13.962Z,82.12
2019-01-21T07:07:54.588Z,82.22
2019-01-21T07:08:35.166Z,83.07
2019-01-21T07:09:15.722Z,82.79
2019-01-21T07:09:56.290Z,82.88
2019-01-21T07:10:36.838Z,82.88
2019-01-21T07:11:17.423Z,83.07
2019-01-21T07:11:57.984Z,83.07
2019-01-21T07:12:38.537Z,83.36
2019-01-21T07:13:19.145Z,83.92
2019-01-21T07:13:59.694Z,83.45
2019-01-21T07:14:40.276Z,83.64
2019-01-21T07:15:20.998Z,83.45
2019-01-21T07:16:01.908Z,83.07
2019-01-21T07:16:42.462Z,82.41
2019-01-21T07:17:23.018Z,83.07
2019-01-21T07:18:03.580Z,83.07
2019-01-21T07:18:44.175Z,82.98
2019-01-21T07:19:24.743Z,83.17
2019-01-21T07:20:05.320Z,82.98
2019-01-21T07:20:45.888Z,83.45
2019-01-21T07:21:26.463Z,83.26
2019-01-21T07:22:07.050Z,83.26
2019-01-21T07:22:47.618Z,83.17
2019-01-21T07:23:28.195Z,83.26
2019-01-21T07:24:08.791Z,83.26
2019-01-21T07:24:49.361Z,83.17
2019-01-21T07:25:30.156Z,83.83
2019-01-21T07:26:10.758Z,83.83
2019-01-21T07:26:51.330Z,83.54
2019-01-21T07:27:31.891Z,84.11
2019-01-21T07:28:12.483Z,84.11
2019-01-21T07:28:53.056Z,84.39
2019-01-21T07:29:33.648Z,84.2
2019-01-21T07:30:14.245Z,84.3
2019-01-21T07:30:54.840Z,84.11
2019-01-21T07:31:35.451Z,83.73
2019-01-21T07:32:16.005Z,83.83
2019-01-21T07:32:56.599Z,83.83
2019-01-21T07:33:37.172Z,84.01
2019-01-21T07:34:17.721Z,83.64
2019-01-21T07:34:58.323Z,83.83
2019-01-21T07:35:38.867Z,83.26
2019-01-21T07:36:19.433Z,83.26
2019-01-21T07:37:00.011Z,83.17
2019-01-21T07:37:40.588Z,82.98
2019-01-21T07:38:21.177Z,83.07
2019-01-21T07:39:01.730Z,81.93
2019-01-21T07:39:42.289Z,82.22
2019-01-21T07:40:22.874Z,82.6
2019-01-21T07:41:03.465Z,82.12
2019-01-21T07:41:43.996Z,82.22
2019-01-21T07:42:24.543Z,82.69
2019-01-21T07:43:05.114Z,82.88
2019-01-21T07:43:45.786Z,82.79
2019-01-21T07:44:26.329Z,82.79
2019-01-21T07:45:06.895Z,82.88
2019-01-21T07:45:47.454Z,82.69
2019-01-21T07:46:28.029Z,82.88
2019-01-21T07:47:09.084Z,83.17
2019-01-21T07:47:49.655Z,83.54
2019-01-21T07:48:30.210Z,83.92
2019-01-21T07:49:10.799Z,84.01
2019-01-21T07:49:51.369Z,84.11
2019-01-21T07:50:31.923Z,83.54
2019-01-21T07:51:12.480Z,84.3
2019-01-21T07:51:53.048Z,83.92
2019-01-21T07:52:33.614Z,84.01
2019-01-21T07:53:14.204Z,83.78
2019-01-21T07:53:54.754Z,84.16
2019-01-21T07:54:35.316Z,84.01
2019-01-21T07:55:15.878Z,84.77
2019-01-21T07:55:56.431Z,84.68
2019-01-21T07:56:36.989Z,84.68
2019-01-21T07:57:17.539Z,84.86
2019-01-21T07:57:58.117Z,85.15
2019-01-21T07:58:38.673Z,84.96
2019-01-21T07:59:19.240Z,85.15
2019-01-21T07:59:59.813Z,85.15
2019-01-21T08:00:40.351Z,85.15
2019-01-21T08:01:20.937Z,84.86
2019-01-21T08:02:01.503Z,84.96
2019-01-21T08:02:42.105Z,85.34
2019-01-21T08:03:22.661Z,84.58
2019-01-21T08:04:03.218Z,84.39
2019-01-21T08:04:43.767Z,84.11
2019-01-21T08:05:24.352Z,83.83
2019-01-21T08:06:04.915Z,84.01
2019-01-21T08:06:45.720Z,83.83
2019-01-21T08:07:26.267Z,84.11
2019-01-21T08:08:06.828Z,83.92
2019-01-21T08:08:47.376Z,83.64
2019-01-21T08:09:27.931Z,83.54
2019-01-21T08:10:08.479Z,83.36
2019-01-21T08:10:49.059Z,83.26
2019-01-21T08:11:29.637Z,83.45
2019-01-21T08:12:10.195Z,83.26
2019-01-21T08:12:50.799Z,83.83
2019-01-21T08:13:31.425Z,84.3
2019-01-21T08:14:12.015Z,84.01
2019-01-21T08:14:52.571Z,84.11
2019-01-21T08:15:33.127Z,83.92
2019-01-21T08:16:13.707Z,83.83
2019-01-21T08:16:54.291Z,83.73
2019-01-21T08:17:34.863Z,84.01
2019-01-21T08:18:15.430Z,83.83
2019-01-21T08:18:55.976Z,84.11
2019-01-21T08:19:36.556Z,83.92
2019-01-21T08:20:17.105Z,83.83
2019-01-21T08:20:57.680Z,83.64
2019-01-21T08:21:38.253Z,84.39
2019-01-21T08:22:18.807Z,84.58
2019-01-21T08:22:59.412Z,84.58
2019-01-21T08:23:40.008Z,84.11
2019-01-21T08:24:20.555Z,83.83
2019-01-21T08:25:01.121Z,83.36
2019-01-21T08:25:41.692Z,83.26
2019-01-21T08:26:22.297Z,83.17
2019-01-21T08:27:02.858Z,83.36
2019-01-21T08:27:43.444Z,83.54
2019-01-21T08:28:24.070Z,83.26
2019-01-21T08:29:04.606Z,83.36
2019-01-21T08:29:45.151Z,83.07
2019-01-21T08:30:25.707Z,83.17
2019-01-21T08:31:06.257Z,83.07
2019-01-21T08:31:46.828Z,83.07
2019-01-21T08:32:27.363Z,82.88
2019-01-21T08:33:07.990Z,83.17
2019-01-21T08:33:48.609Z,83.07
2019-01-21T08:34:29.191Z,83.07
2019-01-21T08:35:09.784Z,83.07
2019-01-21T08:35:50.330Z,83.17
2019-01-21T08:36:30.910Z,83.36
2019-01-21T08:37:11.452Z,83.17
2019-01-21T08:37:52.035Z,83.26
2019-01-21T08:38:32.623Z,83.26
2019-01-21T08:39:13.182Z,83.64
2019-01-21T08:39:53.761Z,83.64
2019-01-21T08:40:34.341Z,83.64
2019-01-21T08:41:14.902Z,83.54
2019-01-21T08:41:55.460Z,83.92
2019-01-21T08:42:36.059Z,84.3
2019-01-21T08:43:16.644Z,83.92
2019-01-21T08:43:57.222Z,83.92
2019-01-21T08:44:37.775Z,83.83
2019-01-21T08:45:18.372Z,84.01
2019-01-21T08:45:58.918Z,83.83
2019-01-21T08:46:39.489Z,82.98
2019-01-21T08:47:20.053Z,83.45
2019-01-21T08:48:00.621Z,83.45
2019-01-21T08:48:41.184Z,83.36
2019-01-21T08:49:21.781Z,83.83
2019-01-21T08:50:02.333Z,83.45
2019-01-21T08:50:42.924Z,83.83
2019-01-21T08:51:23.484Z,83.92
2019-01-21T08:52:04.064Z,83.83
2019-01-21T08:52:44.642Z,84.01
2019-01-21T08:53:25.244Z,84.01
2019-01-21T08:54:05.827Z,83.45
2019-01-21T08:54:46.384Z,83.83
2019-01-21T08:55:26.967Z,83.26
2019-01-21T08:56:07.524Z,83.64
2019-01-21T08:56:48.092Z,83.54
2019-01-21T08:57:28.651Z,83.83
2019-01-21T08:58:09.211Z,83.36
2019-01-21T08:58:49.762Z,83.26
2019-01-21T08:59:30.341Z,83.73
2019-01-21T09:00:10.871Z,83.83
2019-01-21T09:00:51.441Z,84.39
2019-01-21T09:01:32.016Z,84.11
2019-01-21T09:02:12.585Z,84.2
2019-01-21T09:02:53.118Z,83.54
2019-01-21T09:03:33.685Z,84.01
2019-01-21T09:04:14.241Z,83.83
2019-01-21T09:04:54.808Z,83.92
2019-01-21T09:05:35.367Z,83.92
2019-01-21T09:06:15.931Z,83.92
2019-01-21T09:07:00.624Z,83.78
2019-01-21T09:07:37.076Z,84.01
2019-01-21T09:08:17.626Z,84.01
2019-01-21T09:08:58.205Z,84.35
2019-01-21T09:09:38.770Z,84.16
2019-01-21T09:10:19.318Z,84.45
2019-01-21T09:10:59.888Z,84.82
2019-01-21T09:11:40.452Z,84.64
2019-01-21T09:12:21.027Z,84.92
2019-01-21T09:13:01.595Z,84.92
2019-01-21T09:13:42.162Z,84.82
2019-01-21T09:14:22.722Z,85.34
2019-01-21T09:15:03.289Z,85.15
2019-01-21T09:15:43.854Z,85.72
2019-01-21T09:16:24.413Z,84.86
2019-01-21T09:17:04.964Z,84.96
2019-01-21T09:17:45.531Z,84.77
2019-01-21T09:18:26.077Z,85.15
2019-01-21T09:19:06.641Z,85.15
2019-01-21T09:19:47.211Z,84.68
2019-01-21T09:20:27.761Z,85.05
2019-01-21T09:21:08.341Z,85.05
2019-01-21T09:21:48.882Z,85.15
2019-01-21T09:22:29.434Z,84.86
2019-01-21T09:23:09.995Z,84.77
2019-01-21T09:23:50.589Z,84.68
2019-01-21T09:24:31.159Z,84.68
2019-01-21T09:25:11.731Z,84.49
2019-01-21T09:25:52.327Z,84.49
2019-01-21T09:26:32.866Z,84.68
2019-01-21T09:27:13.467Z,84.68
2019-01-21T09:27:54.029Z,85.05
2019-01-21T09:28:34.597Z,84.96
2019-01-21T09:29:15.150Z,84.86
2019-01-21T09:29:55.719Z,84.96
2019-01-21T09:30:36.287Z,85.34
2019-01-21T09:31:16.868Z,85.05
2019-01-21T09:31:57.442Z,85.11
2019-01-21T09:32:37.998Z,85.11
2019-01-21T09:33:18.559Z,84.73
2019-01-21T09:33:59.125Z,85.3
2019-01-21T09:34:39.666Z,85.01
2019-01-21T09:35:20.225Z,85.2
2019-01-21T09:36:00.772Z,84.92
2019-01-21T09:36:41.344Z,84.92
2019-01-21T09:37:21.909Z,84.82
2019-01-21T09:38:02.466Z,84.92
2019-01-21T09:38:43.007Z,84.73
2019-01-21T09:39:23.560Z,85.01
2019-01-21T09:40:04.128Z,85.68
2019-01-21T09:40:44.723Z,85.96
2019-01-21T09:41:25.275Z,85.68
2019-01-21T09:42:05.828Z,86.15
2019-01-21T09:42:46.384Z,85.77
2019-01-21T09:43:26.935Z,86.05
2019-01-21T09:44:07.497Z,85.77
2019-01-21T09:44:48.076Z,85.96
2019-01-21T09:45:28.605Z,86.19
2019-01-21T09:46:09.158Z,86
2019-01-21T09:46:49.735Z,85.62
2019-01-21T09:47:30.276Z,85.43
2019-01-21T09:48:10.855Z,84.86
2019-01-21T09:48:51.394Z,84.86
2019-01-21T09:49:31.967Z,84.86
2019-01-21T09:50:12.521Z,85.15
2019-01-21T09:50:53.088Z,84.68
2019-01-21T09:51:33.640Z,84.77
2019-01-21T09:52:14.204Z,84.58
2019-01-21T09:52:54.793Z,85.15
2019-01-21T09:53:35.351Z,85.15
2019-01-21T09:54:15.914Z,84.58
2019-01-21T09:54:56.477Z,84.3
2019-01-21T09:55:37.036Z,84.39
2019-01-21T09:56:17.613Z,84.39
2019-01-21T09:56:58.162Z,84.39
2019-01-21T09:57:38.722Z,84.58
2019-01-21T09:58:19.307Z,84.58
2019-01-21T09:58:59.873Z,84.58
2019-01-21T09:59:40.432Z,84.58
2019-01-21T10:00:21.013Z,84.58
2019-01-21T10:01:01.603Z,85.15
2019-01-21T10:01:42.157Z,84.77
2019-01-21T10:02:22.736Z,85.05
2019-01-21T10:03:03.293Z,85.15
2019-01-21T10:03:43.842Z,85.15
2019-01-21T10:04:24.413Z,84.86
2019-01-21T10:05:04.964Z,84.49
2019-01-21T10:05:45.533Z,84.68
2019-01-21T10:06:26.100Z,84.39
2019-01-21T10:07:07.287Z,84.2
2019-01-21T10:07:47.497Z,84.3
2019-01-21T10:08:28.117Z,84.39
2019-01-21T10:09:08.644Z,83.73
2019-01-21T10:09:55.159Z,83.83
2019-01-21T10:10:29.790Z,83.92
2019-01-21T10:11:10.475Z,84.01
2019-01-21T10:11:51.013Z,83.54
2019-01-21T10:12:32.865Z,83.45
2019-01-21T10:13:12.207Z,84.01
2019-01-21T10:13:52.758Z,83.83
2019-01-21T10:14:33.329Z,83.73
2019-01-21T10:15:13.880Z,84.2
2019-01-21T10:15:54.454Z,84.58
2019-01-21T10:16:35.027Z,84.58
2019-01-21T10:17:15.596Z,84.58
2019-01-21T10:17:56.169Z,85.05
2019-01-21T10:18:36.747Z,85.15
2019-01-21T10:19:17.329Z,85.15
2019-01-21T10:19:57.874Z,85.34
2019-01-21T10:20:38.494Z,85.05
2019-01-21T10:21:19.048Z,84.86
2019-01-21T10:21:59.710Z,84.77
2019-01-21T10:22:40.282Z,84.68
2019-01-21T10:23:20.868Z,84.77
2019-01-21T10:24:01.470Z,85.34
2019-01-21T10:24:42.063Z,85.15
2019-01-21T10:25:22.633Z,85.24
2019-01-21T10:26:03.226Z,84.77
2019-01-21T10:26:43.806Z,85.34
2019-01-21T10:27:24.398Z,84.86
2019-01-21T10:28:04.957Z,85.05
2019-01-21T10:28:45.552Z,85.15
2019-01-21T10:29:26.282Z,84.68
2019-01-21T10:30:07.448Z,84.68
2019-01-21T10:30:48.023Z,84.39
2019-01-21T10:31:28.672Z,84.77
2019-01-21T10:32:09.313Z,84.2
2019-01-21T10:32:49.897Z,84.01
2019-01-21T10:33:30.467Z,83.83
2019-01-21T10:34:11.025Z,84.01
2019-01-21T10:34:51.640Z,83.64
2019-01-21T10:35:32.303Z,83.26
2019-01-21T10:36:12.910Z,83.73
2019-01-21T10:36:53.515Z,84.01
2019-01-21T10:37:34.159Z,83.64
2019-01-21T10:38:14.772Z,83.54
2019-01-21T10:38:55.345Z,83.26
2019-01-21T10:39:35.907Z,83.17
2019-01-21T10:40:16.447Z,83.17
2019-01-21T10:40:57.037Z,82.79
2019-01-21T10:41:37.595Z,82.79
2019-01-21T10:42:18.161Z,83.07
2019-01-21T10:42:58.724Z,82.03
2019-01-21T10:43:39.679Z,82.12
2019-01-21T10:44:20.231Z,82.22
2019-01-21T10:45:00.822Z,82.6
2019-01-21T10:45:41.395Z,82.22
2019-01-21T10:46:21.953Z,82.41
2019-01-21T10:47:02.564Z,82.5
2019-01-21T10:47:43.154Z,82.22
2019-01-21T10:48:23.812Z,82.22
2019-01-21T10:49:04.375Z,82.69
2019-01-21T10:49:44.934Z,81.93
2019-01-21T10:50:25.523Z,81.74
2019-01-21T10:51:06.066Z,81.74
2019-01-21T10:51:46.626Z,81.74
2019-01-21T10:52:27.199Z,81.74
2019-01-21T10:53:07.759Z,81.74
2019-01-21T10:53:48.431Z,81.74
2019-01-21T10:54:28.980Z,82.03
2019-01-21T10:55:09.538Z,82.03
2019-01-21T10:55:50.127Z,81.84
2019-01-21T10:56:30.668Z,81.56
2019-01-21T10:57:11.236Z,82.03
2019-01-21T10:57:51.812Z,82.22
2019-01-21T10:58:32.378Z,82.22
2019-01-21T10:59:12.919Z,82.41
2019-01-21T10:59:53.484Z,82.79
2019-01-21T11:00:34.297Z,82.5
2019-01-21T11:01:14.887Z,82.6
2019-01-21T11:01:55.450Z,82.12
2019-01-21T11:02:36.187Z,82.41
2019-01-21T11:03:17.002Z,82.5
2019-01-21T11:03:57.843Z,82.41
2019-01-21T11:04:38.698Z,82.22
2019-01-21T11:05:19.261Z,82.41
2019-01-21T11:06:00.153Z,82.41
2019-01-21T11:06:40.819Z,82.22
2019-01-21T11:07:21.430Z,81.84
2019-01-21T11:08:01.972Z,82.03
2019-01-21T11:08:42.619Z,82.12
2019-01-21T11:09:26.710Z,82.22
2019-01-21T11:10:03.940Z,82.12
2019-01-21T11:10:44.540Z,81.93
2019-01-21T11:11:25.258Z,82.03
2019-01-21T11:12:05.803Z,82.31
2019-01-21T11:12:46.383Z,82.12
2019-01-21T11:13:26.941Z,83.07
2019-01-21T11:14:07.547Z,82.79
2019-01-21T11:14:48.155Z,83.07
2019-01-21T11:15:28.744Z,82.69
2019-01-21T11:16:09.444Z,82.98
2019-01-21T11:16:49.966Z,83.17
2019-01-21T11:19:02.761Z,82.88
2019-01-21T11:19:43.314Z,82.88
2019-01-21T11:20:23.888Z,85.62
2019-01-21T11:21:04.428Z,90.91
2019-01-21T11:21:45.026Z,94.27
2019-01-21T11:22:25.580Z,96.16
2019-01-21T11:23:06.340Z,96.92
2019-01-21T11:23:46.764Z,97.63
2019-01-21T11:24:27.322Z,97.34
2019-01-21T11:25:07.927Z,94.98
2019-01-21T11:25:48.492Z,93.09
2019-01-21T11:26:29.062Z,90.58
2019-01-21T11:27:09.812Z,87.93
2019-01-21T11:27:51.729Z,86.7
2019-01-21T11:28:30.989Z,84.33
2019-01-21T11:29:11.540Z,81.96
2019-01-21T11:29:52.097Z,79.41
2019-01-21T11:30:32.690Z,76.95
2019-01-21T11:31:13.229Z,75.34
2019-01-21T11:31:53.791Z,74.4
2019-01-21T11:32:34.339Z,74.02
2019-01-21T11:33:14.894Z,73.79
2019-01-21T11:33:55.489Z,74.07
2019-01-21T11:34:36.039Z,74.55
2019-01-21T11:35:16.628Z,75.49
2019-01-21T11:35:57.187Z,75.68
2019-01-21T11:36:37.758Z,76.59
2019-01-21T11:37:18.315Z,77.72
2019-01-21T11:37:58.888Z,77.44
2019-01-21T11:38:39.422Z,77.82
2019-01-21T11:39:19.987Z,78.58
2019-01-21T11:40:00.542Z,78.48
2019-01-21T11:40:41.093Z,78.58
2019-01-21T11:41:21.642Z,78.86
2019-01-21T11:42:02.210Z,79.05
2019-01-21T11:42:42.756Z,79.8
2019-01-21T11:43:23.343Z,79.8
2019-01-21T11:44:03.892Z,79.8
2019-01-21T11:44:44.460Z,79.99
2019-01-21T11:45:25.025Z,79.99
2019-01-21T11:46:05.599Z,80.27
2019-01-21T11:46:46.171Z,79.8
2019-01-21T11:47:26.725Z,79.9
2019-01-21T11:48:07.299Z,79.99
2019-01-21T11:48:47.839Z,79.71
2019-01-21T11:49:28.399Z,79.43
2019-01-21T11:50:10.562Z,79.61
2019-01-21T11:50:49.564Z,80.37
2019-01-21T11:51:30.163Z,80.18
2019-01-21T11:52:10.711Z,79.9
2019-01-21T11:52:51.267Z,79.8
2019-01-21T11:53:31.877Z,79.71
2019-01-21T11:54:12.435Z,79.14
2019-01-21T11:54:52.988Z,79.14
2019-01-21T11:55:33.539Z,79.99
2019-01-21T11:56:14.085Z,79.61
2019-01-21T11:56:54.661Z,79.52
2019-01-21T11:57:35.204Z,79.8
2019-01-21T11:58:15.770Z,79.8
2019-01-21T11:58:56.353Z,79.9
2019-01-21T11:59:36.896Z,80.08
2019-01-21T12:00:17.454Z,79.71
2019-01-21T12:00:58.014Z,80.27
2019-01-21T12:01:38.580Z,80.27
2019-01-21T12:02:19.165Z,80.37
2019-01-21T12:02:59.735Z,80.56
2019-01-21T12:03:40.289Z,80.75
2019-01-21T12:04:20.838Z,80.65
2019-01-21T12:05:01.382Z,80.75
2019-01-21T12:05:41.934Z,79.71
2019-01-21T12:06:22.489Z,80.08
2019-01-21T12:07:03.034Z,80.27
2019-01-21T12:07:43.606Z,79.8
2019-01-21T12:08:24.166Z,79.8
2019-01-21T12:09:04.722Z,80.56
2019-01-21T12:09:45.277Z,80.27
2019-01-21T12:10:25.813Z,80.65
2019-01-21T12:11:06.385Z,80.75
2019-01-21T12:11:46.943Z,80.75
2019-01-21T12:12:27.511Z,80.75
2019-01-21T12:13:08.094Z,80.84
2019-01-21T12:13:48.665Z,80.94
2019-01-21T12:14:29.213Z,81.41
2019-01-21T12:15:09.787Z,81.46
2019-01-21T12:15:50.348Z,81.51
2019-01-21T12:16:30.908Z,80.99
2019-01-21T12:17:11.568Z,81.37
2019-01-21T12:17:52.154Z,81.09
2019-01-21T12:18:32.705Z,81.46
2019-01-21T12:19:13.253Z,81.09
2019-01-21T12:19:53.803Z,81.46
2019-01-21T12:20:34.367Z,81.18
2019-01-21T12:21:14.921Z,81.18
2019-01-21T12:21:55.486Z,80.99
2019-01-21T12:22:36.014Z,81.37
2019-01-21T12:23:16.564Z,80.71
2019-01-21T12:23:57.116Z,81.09
2019-01-21T12:24:37.790Z,81.18
2019-01-21T12:25:18.214Z,81.18
2019-01-21T12:25:58.754Z,81.18
2019-01-21T12:26:39.409Z,81.74
2019-01-21T12:27:19.994Z,81.18
2019-01-21T12:28:00.546Z,81.18
2019-01-21T12:28:41.077Z,81.18
2019-01-21T12:29:21.624Z,81.37
2019-01-21T12:30:02.188Z,81.18
2019-01-21T12:30:42.751Z,81.09
2019-01-21T12:31:23.310Z,81.37
2019-01-21T12:32:03.879Z,81.18
2019-01-21T12:32:44.419Z,81.56
2019-01-21T12:33:24.978Z,81.84
2019-01-21T12:34:05.538Z,81.65
2019-01-21T12:34:46.099Z,81.46
2019-01-21T12:35:26.647Z,81.46
2019-01-21T12:36:07.199Z,81.65
2019-01-21T12:36:47.754Z,81.37
2019-01-21T12:37:28.305Z,81.74
2019-01-21T12:38:08.855Z,81.93
2019-01-21T12:38:49.408Z,81.74
2019-01-21T12:39:29.973Z,82.03
2019-01-21T12:40:10.508Z,81.84
2019-01-21T12:40:51.049Z,82.41
2019-01-21T12:41:31.607Z,82.22
2019-01-21T12:42:12.247Z,81.74
2019-01-21T12:42:52.791Z,82.5
2019-01-21T12:43:33.337Z,82.69
2019-01-21T12:44:13.887Z,82.41
2019-01-21T12:44:54.453Z,82.03
2019-01-21T12:45:35.040Z,82.12
2019-01-21T12:46:15.590Z,82.03
2019-01-21T12:46:56.144Z,82.03
2019-01-21T12:47:36.719Z,81.74
2019-01-21T12:48:17.283Z,82.12
2019-01-21T12:48:57.841Z,82.03
2019-01-21T12:49:38.440Z,82.69
2019-01-21T12:50:23.891Z,82.69
2019-01-21T12:50:59.510Z,82.6
2019-01-21T12:51:40.064Z,82.31
2019-01-21T12:52:20.669Z,81.93
2019-01-21T12:53:01.237Z,82.22
2019-01-21T12:53:41.790Z,82.6
2019-01-21T12:54:22.353Z,81.7
2019-01-21T12:55:02.929Z,81.98
2019-01-21T12:55:43.486Z,81.74
2019-01-21T12:56:24.033Z,82.41
2019-01-21T12:57:04.615Z,82.07
2019-01-21T12:57:45.155Z,81.65
2019-01-21T12:58:25.704Z,81.84
2019-01-21T12:59:06.260Z,81.79
2019-01-21T12:59:46.838Z,81.88
2019-01-21T13:00:27.414Z,81.84
2019-01-21T13:01:07.990Z,81.93
2019-01-21T13:01:48.553Z,81.74
2019-01-21T13:02:29.116Z,81.65
2019-01-21T13:03:09.672Z,81.84
2019-01-21T13:03:50.232Z,81.7
2019-01-21T13:04:30.801Z,81.6
2019-01-21T13:05:12.643Z,81.79
2019-01-21T13:05:51.898Z,81.46
2019-01-21T13:06:32.452Z,81.79
2019-01-21T13:07:13.291Z,81.93
2019-01-21T13:07:53.852Z,81.98
2019-01-21T13:08:34.410Z,81.98
2019-01-21T13:09:14.952Z,81.88
2019-01-21T13:09:55.519Z,81.98
2019-01-21T13:10:36.090Z,81.03
2019-01-21T13:11:16.619Z,81.18
2019-01-21T13:11:57.241Z,81.41
2019-01-21T13:12:37.847Z,81.27
2019-01-21T13:13:18.404Z,81.32
2019-01-21T13:13:58.959Z,81.13
2019-01-21T13:14:39.519Z,81.37
2019-01-21T13:15:20.120Z,80.94
2019-01-21T13:16:00.683Z,80.56
2019-01-21T13:16:41.241Z,81.22
2019-01-21T13:17:21.816Z,81.13
2019-01-21T13:18:02.372Z,81.13
2019-01-21T13:18:42.963Z,81.13
2019-01-21T13:19:23.489Z,81.41
2019-01-21T13:20:04.085Z,81.41
2019-01-21T13:20:44.647Z,80.8
2019-01-21T13:21:25.290Z,80.84
2019-01-21T13:22:05.864Z,80.84
2019-01-21T13:22:51.401Z,80.84
2019-01-21T13:23:26.966Z,80.71
2019-01-21T13:24:07.528Z,81.18
2019-01-21T13:24:48.074Z,81.22
2019-01-21T13:25:28.637Z,81.13
2019-01-21T13:26:09.193Z,81.22
2019-01-21T13:26:49.748Z,81.13
2019-01-21T13:27:30.299Z,81.13
2019-01-21T13:28:10.852Z,81.13
2019-01-21T13:28:51.397Z,81.22
2019-01-21T13:29:31.994Z,81.22
2019-01-21T13:30:12.586Z,80.71
2019-01-21T13:30:53.138Z,80.65
2019-01-21T13:31:33.716Z,80.75
2019-01-21T13:32:14.233Z,80.37
2019-01-21T13:32:54.813Z,80.84
2019-01-21T13:33:35.393Z,80.75
2019-01-21T13:34:15.968Z,81.03
2019-01-21T13:34:56.525Z,81.22
2019-01-21T13:35:37.103Z,81.22
2019-01-21T13:36:17.661Z,81.03
2019-01-21T13:36:58.217Z,81.03
2019-01-21T13:37:38.754Z,81.13
2019-01-21T13:38:19.351Z,81.03
2019-01-21T13:39:00.892Z,81.13
2019-01-21T13:39:40.491Z,81.41
2019-01-21T13:40:21.038Z,81.22
2019-01-21T13:41:01.591Z,81.03
2019-01-21T13:41:42.145Z,80.84
2019-01-21T13:42:22.708Z,80.65
2019-01-21T13:43:03.271Z,80.65
2019-01-21T13:43:43.822Z,80.46
2019-01-21T13:44:24.364Z,80.94
2019-01-21T13:45:04.954Z,80.65
2019-01-21T13:45:45.518Z,80.46
2019-01-21T13:46:26.088Z,80.84
2019-01-21T13:47:06.626Z,80.56
2019-01-21T13:47:47.179Z,80.65
2019-01-21T13:48:27.765Z,80.46
2019-01-21T13:49:08.326Z,80.84
2019-01-21T13:49:48.903Z,80.46
2019-01-21T13:50:29.463Z,80.75
2019-01-21T13:51:09.992Z,80.65
2019-01-21T13:51:50.546Z,80.46
2019-01-21T13:52:31.096Z,80.37
2019-01-21T13:53:11.657Z,79.9
2019-01-21T13:53:52.219Z,80.46
2019-01-21T13:54:32.774Z,79.99
2019-01-21T13:55:13.342Z,79.99
2019-01-21T13:55:53.890Z,80.18
2019-01-21T13:56:34.450Z,79.71
2019-01-21T13:57:15.002Z,80.46
2019-01-21T13:57:55.575Z,80.46
2019-01-21T13:58:36.154Z,80.18
2019-01-21T13:59:16.745Z,80.46
2019-01-21T13:59:57.315Z,80.18
2019-01-21T14:00:37.864Z,79.8
2019-01-21T14:01:18.490Z,80.75
2019-01-21T14:01:59.078Z,80.46
2019-01-21T14:02:39.624Z,79.8
2019-01-21T14:03:20.174Z,79.8
2019-01-21T14:04:00.718Z,80.08
2019-01-21T14:04:41.339Z,80.27
2019-01-21T14:05:21.845Z,80.46
2019-01-21T14:06:02.399Z,80.65
2019-01-21T14:06:42.949Z,80.37
2019-01-21T14:07:23.756Z,80.65
2019-01-21T14:08:04.294Z,80.46
2019-01-21T14:08:44.837Z,80.84
2019-01-21T14:09:25.405Z,80.94
2019-01-21T14:10:05.964Z,80.56
2019-01-21T14:10:46.535Z,80.75
2019-01-21T14:11:27.602Z,80.65
2019-01-21T14:12:08.169Z,80.84
2019-01-21T14:12:48.719Z,80.75
2019-01-21T14:13:29.279Z,80.75
2019-01-21T14:14:09.864Z,80.84
2019-01-21T14:14:50.435Z,80.75
2019-01-21T14:15:30.986Z,80.75
2019-01-21T14:16:11.549Z,80.84
2019-01-21T14:16:52.108Z,80.75
2019-01-21T14:17:32.658Z,80.56
2019-01-21T14:18:13.238Z,80.56
2019-01-21T14:18:53.798Z,81.13
2019-01-21T14:19:34.563Z,81.41
2019-01-21T14:20:16.791Z,81.03
2019-01-21T14:20:55.683Z,81.03
2019-01-21T14:21:36.241Z,81.22
2019-01-21T14:22:16.814Z,81.22
2019-01-21T14:22:57.375Z,81.32
2019-01-21T14:23:37.947Z,81.13
2019-01-21T14:24:18.491Z,81.03
2019-01-21T14:24:59.056Z,81.13
2019-01-21T14:25:39.611Z,81.13
2019-01-21T14:26:20.254Z,81.51
2019-01-21T14:27:00.807Z,81.51
2019-01-21T14:27:41.360Z,81.51
2019-01-21T14:28:21.933Z,81.41
2019-01-21T14:29:02.501Z,81.22
2019-01-21T14:29:43.069Z,80.65
2019-01-21T14:30:23.626Z,80.56
2019-01-21T14:31:04.186Z,80.37
2019-01-21T14:31:44.745Z,80.46
2019-01-21T14:32:25.302Z,80.46
2019-01-21T14:33:05.967Z,80.84
2019-01-21T14:33:46.529Z,81.41
2019-01-21T14:34:27.074Z,81.13
2019-01-21T14:35:10.654Z,81.51
2019-01-21T14:35:51.739Z,81.51
2019-01-21T14:36:32.327Z,81.13
2019-01-21T14:37:12.887Z,81.13